EXS62M EGNX-LEIB
Flight info
| Callsign | EXS62M |
|---|---|
| Flight time | 2h 11m |
| Altitude | 35000 |
| Route | SAPCO Y53 DTY M605 SILVA Q41 COWLY DCT GWC UN859 SOPIL DCT BALAN DCT EVPOK DCT NARAK DCT GAI DCT LOMRA DCT ROCAN DCT PUMAL DCT XEPLA DCT BCN Z174 CORDA |
| Aircraft | A321/M-SDE3FGHIRWY/LB1 |
Departure
| Time | 2026-05-05 10:14 |
|---|---|
| Airport | East Midlands Airport (EGNX) |
Arrival
| Time | 2026-05-05 12:25 |
|---|---|
| Airport | Ibiza Airport (LEIB) |
| Time | Latitude | Longitude | Altitude | Speed | Heading |
|---|---|---|---|---|---|
| 2026-05-05 09:51 | 52.82729 | -1.32934 | 301 ft | 0 kts | 178° |
| 2026-05-05 10:07 | 52.82735 | -1.32935 | 303 ft | 4 kts | 178° |
| 2026-05-05 10:07 | 52.82753 | -1.32936 | 301 ft | 4 kts | 178° |
| 2026-05-05 10:07 | 52.82774 | -1.32936 | 301 ft | 4 kts | 166° |
| 2026-05-05 10:07 | 52.82791 | -1.32955 | 302 ft | 4 kts | 104° |
| 2026-05-05 10:08 | 52.82793 | -1.32995 | 301 ft | 4 kts | 88° |
| 2026-05-05 10:08 | 52.82792 | -1.33019 | 301 ft | 0 kts | 88° |
| 2026-05-05 10:10 | 52.82794 | -1.32961 | 301 ft | 14 kts | 86° |
| 2026-05-05 10:10 | 52.82855 | -1.32859 | 301 ft | 11 kts | 7° |
| 2026-05-05 10:10 | 52.82921 | -1.32897 | 302 ft | 12 kts | 308° |
| 2026-05-05 10:10 | 52.82928 | -1.33036 | 302 ft | 14 kts | 269° |
| 2026-05-05 10:11 | 52.82926 | -1.33248 | 303 ft | 23 kts | 264° |
| 2026-05-05 10:11 | 52.82914 | -1.33577 | 304 ft | 36 kts | 268° |
| 2026-05-05 10:11 | 52.82909 | -1.34002 | 303 ft | 32 kts | 266° |
| 2026-05-05 10:11 | 52.82903 | -1.34309 | 303 ft | 11 kts | 271° |
| 2026-05-05 10:12 | 52.82904 | -1.34412 | 306 ft | 8 kts | 271° |
| 2026-05-05 10:12 | 52.82905 | -1.34501 | 305 ft | 8 kts | 271° |
| 2026-05-05 10:12 | 52.82911 | -1.34612 | 305 ft | 15 kts | 290° |
| 2026-05-05 10:12 | 52.83024 | -1.34670 | 303 ft | 13 kts | 5° |
| 2026-05-05 10:13 | 52.83064 | -1.34603 | 302 ft | 7 kts | 85° |
| 2026-05-05 10:13 | 52.83069 | -1.34520 | 301 ft | 9 kts | 86° |
| 2026-05-05 10:13 | 52.83079 | -1.34106 | 303 ft | 78 kts | 87° |
| 2026-05-05 10:13 | 52.83100 | -1.32762 | 301 ft | 152 kts | 88° |
| 2026-05-05 10:14 | 52.83127 | -1.30793 | 515 ft | 190 kts | 90° |
| 2026-05-05 10:14 | 52.83103 | -1.28477 | 1067 ft | 208 kts | 88° |
| 2026-05-05 10:14 | 52.82987 | -1.26109 | 2044 ft | 206 kts | 94° |
| 2026-05-05 10:14 | 52.82681 | -1.23682 | 2495 ft | 230 kts | 113° |
| 2026-05-05 10:15 | 52.81691 | -1.21445 | 2868 ft | 254 kts | 135° |
| 2026-05-05 10:15 | 52.80534 | -1.19182 | 3533 ft | 261 kts | 115° |
| 2026-05-05 10:15 | 52.80237 | -1.16213 | 4309 ft | 264 kts | 79° |
| 2026-05-05 10:15 | 52.80807 | -1.13335 | 5106 ft | 266 kts | 71° |
| 2026-05-05 10:16 | 52.81020 | -1.10337 | 5827 ft | 270 kts | 99° |
| 2026-05-05 10:16 | 52.80378 | -1.07390 | 6575 ft | 273 kts | 123° |
| 2026-05-05 10:16 | 52.79077 | -1.05164 | 7241 ft | 277 kts | 148° |
| 2026-05-05 10:16 | 52.77277 | -1.04047 | 7914 ft | 280 kts | 174° |
| 2026-05-05 10:17 | 52.75329 | -1.04114 | 8585 ft | 283 kts | 186° |
| 2026-05-05 10:17 | 52.73350 | -1.04377 | 9289 ft | 287 kts | 186° |
| 2026-05-05 10:17 | 52.71369 | -1.04642 | 9974 ft | 291 kts | 186° |
| 2026-05-05 10:17 | 52.69311 | -1.04921 | 10331 ft | 307 kts | 186° |
| 2026-05-05 10:18 | 52.67107 | -1.05213 | 10462 ft | 329 kts | 185° |
| 2026-05-05 10:18 | 52.64745 | -1.05517 | 10588 ft | 351 kts | 186° |
| 2026-05-05 10:18 | 52.62248 | -1.05838 | 10707 ft | 370 kts | 186° |
| 2026-05-05 10:18 | 52.59619 | -1.06172 | 10991 ft | 383 kts | 185° |
| 2026-05-05 10:19 | 52.56945 | -1.06503 | 11533 ft | 388 kts | 185° |
| 2026-05-05 10:19 | 52.54238 | -1.06836 | 12126 ft | 391 kts | 185° |
| 2026-05-05 10:19 | 52.51514 | -1.07175 | 12727 ft | 394 kts | 186° |
| 2026-05-05 10:19 | 52.48773 | -1.07521 | 13311 ft | 397 kts | 186° |
| 2026-05-05 10:20 | 52.46003 | -1.07876 | 13878 ft | 400 kts | 186° |
| 2026-05-05 10:20 | 52.43215 | -1.08227 | 14372 ft | 403 kts | 186° |
| 2026-05-05 10:20 | 52.40414 | -1.08577 | 14884 ft | 405 kts | 186° |
| 2026-05-05 10:20 | 52.37585 | -1.08936 | 15401 ft | 407 kts | 186° |
| 2026-05-05 10:21 | 52.34761 | -1.09296 | 15931 ft | 409 kts | 186° |
| 2026-05-05 10:21 | 52.31910 | -1.09652 | 16450 ft | 411 kts | 185° |
| 2026-05-05 10:21 | 52.29051 | -1.10005 | 16973 ft | 413 kts | 185° |
| 2026-05-05 10:21 | 52.26211 | -1.10357 | 17475 ft | 415 kts | 185° |
| 2026-05-05 10:22 | 52.23320 | -1.10713 | 17971 ft | 417 kts | 185° |
| 2026-05-05 10:22 | 52.20419 | -1.11067 | 18446 ft | 419 kts | 184° |
| 2026-05-05 10:22 | 52.17493 | -1.11034 | 18871 ft | 422 kts | 175° |
| 2026-05-05 10:22 | 52.14585 | -1.10267 | 19314 ft | 425 kts | 169° |
| 2026-05-05 10:23 | 52.11691 | -1.09312 | 19743 ft | 427 kts | 169° |
| 2026-05-05 10:23 | 52.08768 | -1.08348 | 20178 ft | 429 kts | 169° |
| 2026-05-05 10:23 | 52.05830 | -1.07386 | 20594 ft | 431 kts | 169° |
| 2026-05-05 10:23 | 52.02888 | -1.06430 | 21002 ft | 433 kts | 169° |
| 2026-05-05 10:24 | 51.99925 | -1.05466 | 21416 ft | 435 kts | 169° |
| 2026-05-05 10:24 | 51.96951 | -1.04497 | 21812 ft | 437 kts | 169° |
| 2026-05-05 10:24 | 51.93956 | -1.03518 | 22216 ft | 440 kts | 169° |
| 2026-05-05 10:24 | 51.90950 | -1.02540 | 22614 ft | 442 kts | 169° |
| 2026-05-05 10:25 | 51.87924 | -1.01570 | 23018 ft | 444 kts | 171° |
| 2026-05-05 10:25 | 51.84849 | -1.01060 | 23391 ft | 445 kts | 179° |
| 2026-05-05 10:25 | 51.81760 | -1.01319 | 23713 ft | 447 kts | 188° |
| 2026-05-05 10:25 | 51.78680 | -1.02100 | 24035 ft | 448 kts | 189° |
| 2026-05-05 10:26 | 51.75592 | -1.02902 | 24374 ft | 450 kts | 189° |
| 2026-05-05 10:26 | 51.72496 | -1.03703 | 24723 ft | 451 kts | 189° |
| 2026-05-05 10:26 | 51.69435 | -1.04489 | 25069 ft | 452 kts | 189° |
| 2026-05-05 10:26 | 51.66328 | -1.05282 | 25404 ft | 453 kts | 189° |
| 2026-05-05 10:27 | 51.63179 | -1.05809 | 25747 ft | 454 kts | 182° |
| 2026-05-05 10:27 | 51.60034 | -1.05567 | 26206 ft | 452 kts | 174° |
| 2026-05-05 10:27 | 51.57107 | -1.04635 | 26653 ft | 451 kts | 167° |
| 2026-05-05 10:27 | 51.54074 | -1.03376 | 27121 ft | 448 kts | 167° |
| 2026-05-05 10:28 | 51.51059 | -1.02137 | 27608 ft | 445 kts | 167° |
| 2026-05-05 10:28 | 51.48064 | -1.00917 | 28082 ft | 443 kts | 167° |
| 2026-05-05 10:28 | 51.45086 | -0.99704 | 28555 ft | 440 kts | 168° |
| 2026-05-05 10:28 | 51.42129 | -0.98500 | 29024 ft | 438 kts | 168° |
| 2026-05-05 10:29 | 51.39184 | -0.97302 | 29491 ft | 435 kts | 168° |
| 2026-05-05 10:29 | 51.36255 | -0.96113 | 29962 ft | 432 kts | 168° |
| 2026-05-05 10:29 | 51.33343 | -0.94931 | 30351 ft | 431 kts | 168° |
| 2026-05-05 10:29 | 51.30442 | -0.93753 | 30669 ft | 431 kts | 168° |
| 2026-05-05 10:30 | 51.27538 | -0.92576 | 30960 ft | 431 kts | 167° |
| 2026-05-05 10:30 | 51.24629 | -0.91398 | 31226 ft | 432 kts | 167° |
| 2026-05-05 10:30 | 51.21712 | -0.90214 | 31525 ft | 432 kts | 167° |
| 2026-05-05 10:30 | 51.18791 | -0.89023 | 31810 ft | 433 kts | 167° |
| 2026-05-05 10:31 | 51.15870 | -0.87838 | 32093 ft | 434 kts | 167° |
| 2026-05-05 10:31 | 51.12972 | -0.86468 | 32370 ft | 436 kts | 158° |
| 2026-05-05 10:31 | 51.10288 | -0.84316 | 32640 ft | 438 kts | 154° |
| 2026-05-05 10:31 | 51.07599 | -0.82028 | 32919 ft | 439 kts | 154° |
| 2026-05-05 10:32 | 51.04910 | -0.79720 | 33196 ft | 440 kts | 153° |
| 2026-05-05 10:32 | 51.02223 | -0.77403 | 33484 ft | 440 kts | 153° |
| 2026-05-05 10:32 | 50.99528 | -0.75077 | 33785 ft | 441 kts | 153° |
| 2026-05-05 10:32 | 50.96822 | -0.72743 | 34037 ft | 441 kts | 153° |
| 2026-05-05 10:33 | 50.94124 | -0.70423 | 34257 ft | 442 kts | 153° |
| 2026-05-05 10:33 | 50.91422 | -0.68107 | 34484 ft | 442 kts | 153° |
| 2026-05-05 10:33 | 50.88704 | -0.65783 | 34709 ft | 443 kts | 153° |
| 2026-05-05 10:33 | 50.85995 | -0.63477 | 34904 ft | 443 kts | 154° |
| 2026-05-05 10:34 | 50.80546 | -0.58864 | 34974 ft | 444 kts | 154° |
| 2026-05-05 10:34 | 50.75104 | -0.54258 | 34975 ft | 444 kts | 154° |
| 2026-05-05 10:35 | 50.69659 | -0.49659 | 34971 ft | 443 kts | 154° |
| 2026-05-05 10:35 | 50.64226 | -0.45068 | 34974 ft | 443 kts | 154° |
| 2026-05-05 10:36 | 50.58790 | -0.40492 | 34974 ft | 442 kts | 154° |
| 2026-05-05 10:36 | 50.53367 | -0.35950 | 34972 ft | 441 kts | 154° |
| 2026-05-05 10:37 | 50.47952 | -0.31425 | 34966 ft | 440 kts | 154° |
| 2026-05-05 10:37 | 50.42546 | -0.26913 | 34963 ft | 439 kts | 154° |
| 2026-05-05 10:38 | 50.37145 | -0.22431 | 34964 ft | 439 kts | 154° |
| 2026-05-05 10:38 | 50.31791 | -0.17986 | 34959 ft | 438 kts | 154° |
| 2026-05-05 10:39 | 50.26383 | -0.13493 | 34960 ft | 437 kts | 154° |
| 2026-05-05 10:39 | 50.21049 | -0.09092 | 34955 ft | 436 kts | 154° |
| 2026-05-05 10:40 | 50.15692 | -0.04683 | 34953 ft | 435 kts | 154° |
| 2026-05-05 10:40 | 50.10303 | -0.00418 | 34950 ft | 432 kts | 160° |
| 2026-05-05 10:41 | 50.04557 | 0.02168 | 34947 ft | 429 kts | 167° |
| 2026-05-05 10:41 | 49.98765 | 0.04430 | 34944 ft | 429 kts | 167° |
| 2026-05-05 10:42 | 49.90094 | 0.07832 | 34940 ft | 428 kts | 167° |
| 2026-05-05 10:43 | 49.84328 | 0.10087 | 34933 ft | 427 kts | 167° |
| 2026-05-05 10:43 | 49.78571 | 0.12346 | 34937 ft | 427 kts | 167° |
| 2026-05-05 10:44 | 49.72817 | 0.14591 | 34939 ft | 427 kts | 167° |
| 2026-05-05 10:44 | 49.67060 | 0.16826 | 34942 ft | 426 kts | 167° |
| 2026-05-05 10:45 | 49.61358 | 0.19104 | 34949 ft | 426 kts | 166° |
| 2026-05-05 10:45 | 49.55613 | 0.21444 | 34948 ft | 426 kts | 166° |
| 2026-05-05 10:46 | 49.49871 | 0.23774 | 34947 ft | 426 kts | 166° |
| 2026-05-05 10:46 | 49.44140 | 0.26072 | 34921 ft | 426 kts | 166° |
| 2026-05-05 10:47 | 49.38393 | 0.28358 | 34922 ft | 426 kts | 166° |
| 2026-05-05 10:47 | 49.32660 | 0.30640 | 34923 ft | 426 kts | 166° |
| 2026-05-05 10:48 | 49.26938 | 0.32959 | 34918 ft | 426 kts | 165° |
| 2026-05-05 10:48 | 49.21229 | 0.35387 | 34915 ft | 426 kts | 165° |
| 2026-05-05 10:49 | 49.15528 | 0.37829 | 34912 ft | 426 kts | 165° |
| 2026-05-05 10:49 | 49.09841 | 0.40217 | 34907 ft | 426 kts | 165° |
| 2026-05-05 10:50 | 49.04087 | 0.42613 | 34899 ft | 426 kts | 165° |
| 2026-05-05 10:50 | 48.98407 | 0.44983 | 34895 ft | 426 kts | 165° |
| 2026-05-05 10:51 | 48.92688 | 0.47362 | 34895 ft | 426 kts | 165° |
| 2026-05-05 10:51 | 48.86980 | 0.49740 | 34892 ft | 426 kts | 165° |
| 2026-05-05 10:52 | 48.81269 | 0.52115 | 34887 ft | 425 kts | 165° |
| 2026-05-05 10:52 | 48.75551 | 0.54452 | 34888 ft | 426 kts | 165° |
| 2026-05-05 10:53 | 48.69817 | 0.56697 | 34887 ft | 425 kts | 166° |
| 2026-05-05 10:53 | 48.64081 | 0.58914 | 34881 ft | 425 kts | 166° |
| 2026-05-05 10:54 | 48.58387 | 0.61121 | 34879 ft | 425 kts | 166° |
| 2026-05-05 10:54 | 48.52655 | 0.63350 | 34880 ft | 425 kts | 165° |
| 2026-05-05 10:55 | 48.46927 | 0.65532 | 34872 ft | 425 kts | 165° |
| 2026-05-05 10:55 | 48.41221 | 0.67871 | 34870 ft | 425 kts | 164° |
| 2026-05-05 10:56 | 48.36484 | 0.69863 | 34868 ft | 426 kts | 164° |
| 2026-05-05 10:56 | 48.30766 | 0.72218 | 34862 ft | 426 kts | 165° |
| 2026-05-05 10:57 | 48.25036 | 0.74523 | 34859 ft | 426 kts | 165° |
| 2026-05-05 10:57 | 48.19303 | 0.76787 | 34851 ft | 426 kts | 165° |
| 2026-05-05 10:58 | 48.13554 | 0.79028 | 34848 ft | 427 kts | 165° |
| 2026-05-05 10:58 | 48.07808 | 0.81301 | 34843 ft | 427 kts | 165° |
| 2026-05-05 10:59 | 48.02063 | 0.83576 | 34841 ft | 428 kts | 165° |
| 2026-05-05 10:59 | 47.96302 | 0.85829 | 34840 ft | 428 kts | 165° |
| 2026-05-05 11:00 | 47.90541 | 0.88074 | 34833 ft | 428 kts | 165° |
| 2026-05-05 11:00 | 47.84812 | 0.90298 | 34839 ft | 428 kts | 165° |
| 2026-05-05 11:01 | 47.79043 | 0.92532 | 34847 ft | 429 kts | 165° |
| 2026-05-05 11:01 | 47.73261 | 0.94772 | 34845 ft | 429 kts | 165° |
| 2026-05-05 11:02 | 47.67477 | 0.97004 | 34849 ft | 430 kts | 165° |
| 2026-05-05 11:02 | 47.61684 | 0.99234 | 34853 ft | 430 kts | 165° |
| 2026-05-05 11:03 | 47.55886 | 1.01460 | 34858 ft | 431 kts | 165° |
| 2026-05-05 11:03 | 47.50078 | 1.03690 | 34861 ft | 431 kts | 165° |
| 2026-05-05 11:04 | 47.44265 | 1.05871 | 34859 ft | 432 kts | 169° |
| 2026-05-05 11:04 | 47.38269 | 1.06336 | 34865 ft | 433 kts | 180° |
| 2026-05-05 11:05 | 47.32243 | 1.06175 | 34864 ft | 433 kts | 180° |
| 2026-05-05 11:05 | 47.26209 | 1.06044 | 34866 ft | 433 kts | 180° |
| 2026-05-05 11:06 | 47.20218 | 1.05921 | 34867 ft | 434 kts | 180° |
| 2026-05-05 11:06 | 47.14174 | 1.05778 | 34867 ft | 434 kts | 180° |
| 2026-05-05 11:07 | 47.08129 | 1.05623 | 34866 ft | 435 kts | 180° |
| 2026-05-05 11:07 | 47.02113 | 1.06142 | 34869 ft | 434 kts | 171° |
| 2026-05-05 11:08 | 46.96113 | 1.07390 | 34869 ft | 435 kts | 171° |
| 2026-05-05 11:08 | 46.90116 | 1.08640 | 34872 ft | 436 kts | 171° |
| 2026-05-05 11:09 | 46.84102 | 1.09890 | 34870 ft | 436 kts | 172° |
| 2026-05-05 11:09 | 46.78082 | 1.11144 | 34873 ft | 437 kts | 172° |
| 2026-05-05 11:10 | 46.72076 | 1.12393 | 34882 ft | 437 kts | 172° |
| 2026-05-05 11:10 | 46.66035 | 1.13641 | 34875 ft | 438 kts | 172° |
| 2026-05-05 11:11 | 46.59999 | 1.14887 | 34882 ft | 438 kts | 172° |
| 2026-05-05 11:11 | 46.53958 | 1.16132 | 34885 ft | 438 kts | 172° |
| 2026-05-05 11:12 | 46.47913 | 1.17373 | 34888 ft | 439 kts | 172° |
| 2026-05-05 11:12 | 46.41912 | 1.18597 | 34887 ft | 439 kts | 172° |
| 2026-05-05 11:13 | 46.35863 | 1.19834 | 34891 ft | 439 kts | 172° |
| 2026-05-05 11:13 | 46.29816 | 1.21067 | 34895 ft | 439 kts | 172° |
| 2026-05-05 11:14 | 46.23767 | 1.22302 | 34896 ft | 439 kts | 173° |
| 2026-05-05 11:14 | 46.17719 | 1.23530 | 34903 ft | 439 kts | 173° |
| 2026-05-05 11:15 | 46.11655 | 1.24761 | 34910 ft | 440 kts | 173° |
| 2026-05-05 11:15 | 46.05592 | 1.25991 | 34915 ft | 440 kts | 173° |
| 2026-05-05 11:16 | 45.99524 | 1.27214 | 34918 ft | 440 kts | 173° |
| 2026-05-05 11:16 | 45.93487 | 1.28428 | 34919 ft | 441 kts | 173° |
| 2026-05-05 11:17 | 45.87411 | 1.29660 | 34920 ft | 441 kts | 173° |
| 2026-05-05 11:17 | 45.81285 | 1.30891 | 34920 ft | 441 kts | 173° |
| 2026-05-05 11:18 | 45.75241 | 1.32091 | 34919 ft | 441 kts | 173° |
| 2026-05-05 11:18 | 45.69161 | 1.33297 | 34918 ft | 441 kts | 173° |
| 2026-05-05 11:19 | 45.63079 | 1.34505 | 34922 ft | 441 kts | 174° |
| 2026-05-05 11:19 | 45.56996 | 1.35713 | 34924 ft | 441 kts | 174° |
| 2026-05-05 11:20 | 45.50923 | 1.36922 | 34928 ft | 441 kts | 174° |
| 2026-05-05 11:20 | 45.44856 | 1.38256 | 34928 ft | 441 kts | 171° |
| 2026-05-05 11:21 | 45.38857 | 1.40168 | 34932 ft | 442 kts | 168° |
| 2026-05-05 11:21 | 45.32879 | 1.42277 | 34935 ft | 442 kts | 168° |
| 2026-05-05 11:22 | 45.26882 | 1.44279 | 34936 ft | 442 kts | 169° |
| 2026-05-05 11:22 | 45.20869 | 1.46184 | 34941 ft | 442 kts | 170° |
| 2026-05-05 11:23 | 45.14865 | 1.48074 | 34944 ft | 442 kts | 170° |
| 2026-05-05 11:23 | 45.08857 | 1.49970 | 34947 ft | 442 kts | 170° |
| 2026-05-05 11:24 | 45.02888 | 1.51864 | 34950 ft | 442 kts | 170° |
| 2026-05-05 11:24 | 44.96885 | 1.53781 | 34949 ft | 442 kts | 170° |
| 2026-05-05 11:25 | 44.90889 | 1.55684 | 34944 ft | 442 kts | 170° |
| 2026-05-05 11:25 | 44.84886 | 1.57579 | 34945 ft | 442 kts | 171° |
| 2026-05-05 11:26 | 44.78883 | 1.59465 | 34946 ft | 442 kts | 171° |
| 2026-05-05 11:26 | 44.72874 | 1.61356 | 34946 ft | 442 kts | 171° |
| 2026-05-05 11:27 | 44.66870 | 1.63259 | 34948 ft | 442 kts | 171° |
| 2026-05-05 11:27 | 44.60875 | 1.65144 | 34951 ft | 441 kts | 171° |
| 2026-05-05 11:28 | 44.54878 | 1.67002 | 34953 ft | 441 kts | 171° |
| 2026-05-05 11:28 | 44.48880 | 1.68871 | 34954 ft | 441 kts | 171° |
| 2026-05-05 11:29 | 44.42902 | 1.70736 | 34954 ft | 440 kts | 171° |
| 2026-05-05 11:29 | 44.36928 | 1.72592 | 34957 ft | 439 kts | 171° |
| 2026-05-05 11:30 | 44.30965 | 1.74443 | 34957 ft | 439 kts | 172° |
| 2026-05-05 11:30 | 44.24985 | 1.76086 | 34958 ft | 437 kts | 175° |
| 2026-05-05 11:31 | 44.18978 | 1.77343 | 34960 ft | 436 kts | 176° |
| 2026-05-05 11:31 | 44.12973 | 1.78550 | 34960 ft | 436 kts | 176° |
| 2026-05-05 11:32 | 44.06982 | 1.79835 | 34958 ft | 436 kts | 175° |
| 2026-05-05 11:32 | 44.01002 | 1.81168 | 34960 ft | 435 kts | 175° |
| 2026-05-05 11:33 | 43.95028 | 1.82479 | 34960 ft | 434 kts | 177° |
| 2026-05-05 11:33 | 43.89048 | 1.83282 | 34958 ft | 430 kts | 181° |
| 2026-05-05 11:34 | 43.83077 | 1.83710 | 34964 ft | 429 kts | 182° |
| 2026-05-05 11:34 | 43.77123 | 1.84168 | 34970 ft | 429 kts | 181° |
| 2026-05-05 11:35 | 43.71179 | 1.84738 | 34977 ft | 428 kts | 181° |
| 2026-05-05 11:35 | 43.65239 | 1.85336 | 34973 ft | 427 kts | 181° |
| 2026-05-05 11:36 | 43.59314 | 1.85921 | 34979 ft | 426 kts | 181° |
| 2026-05-05 11:36 | 43.53406 | 1.86489 | 34975 ft | 425 kts | 181° |
| 2026-05-05 11:37 | 43.47513 | 1.87053 | 34964 ft | 424 kts | 182° |
| 2026-05-05 11:37 | 43.41619 | 1.87617 | 34969 ft | 424 kts | 182° |
| 2026-05-05 11:38 | 43.35743 | 1.88171 | 34957 ft | 423 kts | 182° |
| 2026-05-05 11:38 | 43.29878 | 1.88731 | 34951 ft | 422 kts | 182° |
| 2026-05-05 11:39 | 43.24015 | 1.89294 | 34954 ft | 422 kts | 182° |
| 2026-05-05 11:39 | 43.18168 | 1.89849 | 34955 ft | 421 kts | 182° |
| 2026-05-05 11:40 | 43.12330 | 1.90406 | 34955 ft | 420 kts | 182° |
| 2026-05-05 11:40 | 43.07487 | 1.90869 | 34954 ft | 419 kts | 182° |
| 2026-05-05 11:41 | 43.01671 | 1.91424 | 34952 ft | 419 kts | 182° |
| 2026-05-05 11:41 | 42.95870 | 1.91978 | 34953 ft | 417 kts | 183° |
| 2026-05-05 11:42 | 42.90081 | 1.92525 | 34945 ft | 416 kts | 183° |
| 2026-05-05 11:42 | 42.84313 | 1.93074 | 34946 ft | 414 kts | 183° |
| 2026-05-05 11:43 | 42.78578 | 1.93615 | 34940 ft | 413 kts | 183° |
| 2026-05-05 11:43 | 42.72857 | 1.94151 | 34938 ft | 412 kts | 184° |
| 2026-05-05 11:44 | 42.67106 | 1.94698 | 34932 ft | 412 kts | 182° |
| 2026-05-05 11:44 | 42.61437 | 1.95651 | 34926 ft | 415 kts | 179° |
| 2026-05-05 11:45 | 42.55725 | 1.96926 | 34926 ft | 416 kts | 179° |
| 2026-05-05 11:45 | 42.50017 | 1.98176 | 34923 ft | 415 kts | 179° |
| 2026-05-05 11:46 | 42.44315 | 1.99339 | 34921 ft | 414 kts | 180° |
| 2026-05-05 11:46 | 42.38609 | 2.00463 | 34929 ft | 414 kts | 180° |
| 2026-05-05 11:47 | 42.32956 | 2.01379 | 34927 ft | 410 kts | 183° |
| 2026-05-05 11:47 | 42.27277 | 2.01869 | 34927 ft | 408 kts | 185° |
| 2026-05-05 11:48 | 42.18774 | 2.02524 | 34934 ft | 409 kts | 184° |
| 2026-05-05 11:48 | 42.13095 | 2.03051 | 34935 ft | 409 kts | 184° |
| 2026-05-05 11:49 | 42.07411 | 2.03605 | 34935 ft | 409 kts | 184° |
| 2026-05-05 11:49 | 42.01736 | 2.04157 | 34932 ft | 409 kts | 184° |
| 2026-05-05 11:50 | 41.96042 | 2.04696 | 34935 ft | 410 kts | 184° |
| 2026-05-05 11:50 | 41.90342 | 2.05225 | 34938 ft | 411 kts | 184° |
| 2026-05-05 11:51 | 41.84627 | 2.05758 | 34938 ft | 412 kts | 184° |
| 2026-05-05 11:51 | 41.78914 | 2.06290 | 34943 ft | 412 kts | 184° |
| 2026-05-05 11:52 | 41.73188 | 2.06822 | 34939 ft | 412 kts | 184° |
| 2026-05-05 11:52 | 41.67461 | 2.07365 | 34945 ft | 412 kts | 184° |
| 2026-05-05 11:53 | 41.61734 | 2.07905 | 34943 ft | 412 kts | 184° |
| 2026-05-05 11:53 | 41.56008 | 2.08432 | 34947 ft | 412 kts | 184° |
| 2026-05-05 11:54 | 41.50282 | 2.08966 | 34946 ft | 412 kts | 184° |
| 2026-05-05 11:54 | 41.44566 | 2.09504 | 34945 ft | 412 kts | 184° |
| 2026-05-05 11:55 | 41.38857 | 2.10033 | 34943 ft | 411 kts | 185° |
| 2026-05-05 11:55 | 41.33142 | 2.10559 | 34946 ft | 411 kts | 185° |
| 2026-05-05 11:56 | 41.27440 | 2.11190 | 34945 ft | 413 kts | 182° |
| 2026-05-05 11:56 | 41.21728 | 2.12176 | 34944 ft | 414 kts | 181° |
| 2026-05-05 11:57 | 41.16032 | 2.13224 | 34943 ft | 413 kts | 181° |
| 2026-05-05 11:57 | 41.10336 | 2.14219 | 34943 ft | 412 kts | 182° |
| 2026-05-05 11:58 | 41.04632 | 2.15167 | 34943 ft | 412 kts | 182° |
| 2026-05-05 11:58 | 40.98942 | 2.16102 | 34942 ft | 412 kts | 182° |
| 2026-05-05 11:59 | 40.93283 | 2.17033 | 34938 ft | 412 kts | 182° |
| 2026-05-05 11:59 | 40.87585 | 2.17982 | 34942 ft | 412 kts | 182° |
| 2026-05-05 12:00 | 40.81892 | 2.18938 | 34947 ft | 412 kts | 182° |
| 2026-05-05 12:00 | 40.76196 | 2.19874 | 34942 ft | 412 kts | 182° |
| 2026-05-05 12:01 | 40.70502 | 2.20808 | 34939 ft | 412 kts | 182° |
| 2026-05-05 12:01 | 40.67684 | 2.20837 | 34940 ft | 397 kts | 196° |
| 2026-05-05 12:01 | 40.64979 | 2.20230 | 34942 ft | 395 kts | 198° |
| 2026-05-05 12:02 | 40.59573 | 2.18922 | 34942 ft | 395 kts | 198° |
| 2026-05-05 12:02 | 40.54177 | 2.17591 | 34943 ft | 394 kts | 198° |
| 2026-05-05 12:03 | 40.48774 | 2.16275 | 34944 ft | 395 kts | 198° |
| 2026-05-05 12:03 | 40.43360 | 2.14965 | 34943 ft | 395 kts | 198° |
| 2026-05-05 12:04 | 40.37964 | 2.13656 | 34944 ft | 394 kts | 198° |
| 2026-05-05 12:04 | 40.32559 | 2.12345 | 34618 ft | 394 kts | 198° |
| 2026-05-05 12:05 | 40.29869 | 2.11693 | 34373 ft | 393 kts | 198° |
| 2026-05-05 12:05 | 40.27182 | 2.11043 | 34113 ft | 392 kts | 197° |
| 2026-05-05 12:05 | 40.24489 | 2.10392 | 33334 ft | 394 kts | 197° |
| 2026-05-05 12:05 | 40.21789 | 2.09740 | 32581 ft | 395 kts | 198° |
| 2026-05-05 12:06 | 40.19116 | 2.09096 | 31793 ft | 397 kts | 198° |
| 2026-05-05 12:06 | 40.16390 | 2.08438 | 31012 ft | 399 kts | 198° |
| 2026-05-05 12:06 | 40.13657 | 2.07781 | 30252 ft | 400 kts | 198° |
| 2026-05-05 12:06 | 40.10952 | 2.07138 | 29305 ft | 388 kts | 197° |
| 2026-05-05 12:07 | 40.08340 | 2.06531 | 28449 ft | 377 kts | 197° |
| 2026-05-05 12:07 | 40.05722 | 2.05905 | 27643 ft | 386 kts | 197° |
| 2026-05-05 12:07 | 40.03068 | 2.05258 | 26745 ft | 391 kts | 197° |
| 2026-05-05 12:07 | 40.00376 | 2.04600 | 25771 ft | 396 kts | 197° |
| 2026-05-05 12:08 | 39.97637 | 2.03931 | 24812 ft | 405 kts | 196° |
| 2026-05-05 12:08 | 39.94849 | 2.03254 | 23859 ft | 410 kts | 196° |
| 2026-05-05 12:08 | 39.92036 | 2.02581 | 22951 ft | 411 kts | 195° |
| 2026-05-05 12:08 | 39.89230 | 2.01920 | 22248 ft | 407 kts | 195° |
| 2026-05-05 12:09 | 39.86460 | 2.01267 | 21570 ft | 402 kts | 195° |
| 2026-05-05 12:09 | 39.83710 | 2.00619 | 20901 ft | 399 kts | 195° |
| 2026-05-05 12:09 | 39.80989 | 1.99975 | 20239 ft | 396 kts | 195° |
| 2026-05-05 12:09 | 39.78291 | 1.99333 | 19587 ft | 393 kts | 195° |
| 2026-05-05 12:10 | 39.75607 | 1.98694 | 18947 ft | 390 kts | 195° |
| 2026-05-05 12:10 | 39.72949 | 1.98062 | 18314 ft | 388 kts | 195° |
| 2026-05-05 12:10 | 39.70303 | 1.97432 | 17686 ft | 385 kts | 195° |
| 2026-05-05 12:10 | 39.67674 | 1.96807 | 17106 ft | 383 kts | 195° |
| 2026-05-05 12:11 | 39.65062 | 1.96187 | 16518 ft | 380 kts | 195° |
| 2026-05-05 12:11 | 39.62469 | 1.95573 | 15946 ft | 378 kts | 194° |
| 2026-05-05 12:11 | 39.59884 | 1.94961 | 15379 ft | 376 kts | 194° |
| 2026-05-05 12:11 | 39.57320 | 1.94358 | 14836 ft | 374 kts | 194° |
| 2026-05-05 12:12 | 39.54765 | 1.93754 | 14295 ft | 372 kts | 194° |
| 2026-05-05 12:12 | 39.52222 | 1.93151 | 13775 ft | 370 kts | 194° |
| 2026-05-05 12:12 | 39.49697 | 1.92554 | 13216 ft | 368 kts | 193° |
| 2026-05-05 12:12 | 39.47183 | 1.91961 | 12705 ft | 366 kts | 193° |
| 2026-05-05 12:13 | 39.44682 | 1.91372 | 12197 ft | 364 kts | 193° |
| 2026-05-05 12:13 | 39.42195 | 1.90787 | 11679 ft | 361 kts | 194° |
| 2026-05-05 12:13 | 39.39876 | 1.89776 | 11479 ft | 344 kts | 209° |
| 2026-05-05 12:13 | 39.37824 | 1.88362 | 11332 ft | 322 kts | 210° |
| 2026-05-05 12:14 | 39.35946 | 1.87062 | 11154 ft | 293 kts | 210° |
| 2026-05-05 12:14 | 39.34199 | 1.85846 | 10626 ft | 280 kts | 210° |
| 2026-05-05 12:14 | 39.32518 | 1.84669 | 10198 ft | 272 kts | 210° |
| 2026-05-05 12:14 | 39.30850 | 1.83494 | 9955 ft | 273 kts | 210° |
| 2026-05-05 12:15 | 39.29181 | 1.82319 | 9834 ft | 274 kts | 210° |
| 2026-05-05 12:15 | 39.27506 | 1.81146 | 9703 ft | 274 kts | 210° |
| 2026-05-05 12:15 | 39.25823 | 1.79970 | 9576 ft | 274 kts | 210° |
| 2026-05-05 12:15 | 39.24149 | 1.78798 | 9446 ft | 273 kts | 210° |
| 2026-05-05 12:16 | 39.22476 | 1.77627 | 9080 ft | 274 kts | 210° |
| 2026-05-05 12:16 | 39.20800 | 1.76456 | 8625 ft | 274 kts | 210° |
| 2026-05-05 12:16 | 39.19143 | 1.75299 | 8249 ft | 272 kts | 210° |
| 2026-05-05 12:16 | 39.17474 | 1.74133 | 7837 ft | 272 kts | 210° |
| 2026-05-05 12:17 | 39.15810 | 1.72972 | 7381 ft | 266 kts | 210° |
| 2026-05-05 12:17 | 39.14207 | 1.71854 | 6795 ft | 263 kts | 210° |
| 2026-05-05 12:17 | 39.12605 | 1.70737 | 6318 ft | 261 kts | 210° |
| 2026-05-05 12:17 | 39.11012 | 1.69628 | 5846 ft | 259 kts | 210° |
| 2026-05-05 12:18 | 39.09426 | 1.68526 | 5389 ft | 260 kts | 210° |
| 2026-05-05 12:18 | 39.07833 | 1.67419 | 4950 ft | 262 kts | 210° |
| 2026-05-05 12:18 | 39.06220 | 1.66296 | 4481 ft | 265 kts | 210° |
| 2026-05-05 12:18 | 39.04597 | 1.65169 | 4106 ft | 263 kts | 210° |
| 2026-05-05 12:19 | 39.03034 | 1.64087 | 4047 ft | 248 kts | 210° |
| 2026-05-05 12:19 | 39.01546 | 1.63058 | 3966 ft | 236 kts | 210° |
| 2026-05-05 12:19 | 39.00141 | 1.62086 | 3892 ft | 222 kts | 210° |
| 2026-05-05 12:19 | 38.98814 | 1.61169 | 3781 ft | 211 kts | 210° |
| 2026-05-05 12:20 | 38.97535 | 1.60283 | 3688 ft | 205 kts | 211° |
| 2026-05-05 12:20 | 38.96461 | 1.59242 | 3611 ft | 183 kts | 230° |
| 2026-05-05 12:20 | 38.95777 | 1.57923 | 3371 ft | 175 kts | 245° |
| 2026-05-05 12:20 | 38.95222 | 1.56553 | 3122 ft | 171 kts | 244° |
| 2026-05-05 12:21 | 38.94675 | 1.55226 | 2883 ft | 167 kts | 244° |
| 2026-05-05 12:21 | 38.94311 | 1.54344 | 2736 ft | 165 kts | 244° |
| 2026-05-05 12:21 | 38.93787 | 1.53073 | 2507 ft | 161 kts | 244° |
| 2026-05-05 12:21 | 38.93269 | 1.51816 | 2290 ft | 157 kts | 244° |
| 2026-05-05 12:22 | 38.92762 | 1.50585 | 2105 ft | 156 kts | 244° |
| 2026-05-05 12:22 | 38.92260 | 1.49367 | 1884 ft | 155 kts | 243° |
| 2026-05-05 12:22 | 38.91759 | 1.48151 | 1684 ft | 153 kts | 243° |
| 2026-05-05 12:22 | 38.91275 | 1.46978 | 1477 ft | 144 kts | 243° |
| 2026-05-05 12:23 | 38.90815 | 1.45861 | 1277 ft | 140 kts | 244° |
| 2026-05-05 12:23 | 38.90359 | 1.44757 | 1096 ft | 140 kts | 244° |
| 2026-05-05 12:23 | 38.89907 | 1.43660 | 915 ft | 138 kts | 243° |
| 2026-05-05 12:23 | 38.89453 | 1.42573 | 750 ft | 138 kts | 242° |
| 2026-05-05 12:24 | 38.89006 | 1.41487 | 568 ft | 139 kts | 243° |
| 2026-05-05 12:24 | 38.88558 | 1.40398 | 356 ft | 137 kts | 243° |
| 2026-05-05 12:24 | 38.88118 | 1.39326 | 175 ft | 135 kts | 240° |
| 2026-05-05 12:24 | 38.87680 | 1.38270 | 34 ft | 129 kts | 241° |
| 2026-05-05 12:25 | 38.87313 | 1.37376 | 31 ft | 91 kts | 242° |
| 2026-05-05 12:25 | 38.87129 | 1.36912 | 29 ft | 35 kts | 250° |
| 2026-05-05 12:25 | 38.87096 | 1.36705 | 30 ft | 2 kts | 272° |
| 2026-05-05 12:25 | 38.87098 | 1.36658 | 30 ft | 15 kts | 273° |
| 2026-05-05 12:26 | 38.87140 | 1.36560 | 33 ft | 9 kts | 1° |
| 2026-05-05 12:26 | 38.87173 | 1.36595 | 35 ft | 7 kts | 50° |
| 2026-05-05 12:26 | 38.87209 | 1.36669 | 36 ft | 12 kts | 62° |
| 2026-05-05 12:26 | 38.87258 | 1.36791 | 34 ft | 18 kts | 62° |